Time;durP1;ratioP1;P1;durP2;ratioP2;P2;SDS_P1;SDS_P2;PMS_P1;PMS_P2;Temp;Humidity;BMP_temperature;BMP_pressure;BME280_temperature;BME280_humidity;BME280_pressure;Samples;Min_cycle;Max_cycle;Signal;HPM_P1;HPM_P2
2022/02/27 00:01:55;;;;;;;24.55;16.35;;;20.80;88.10;;;;;;1873767;75;21129;-88
2022/02/27 00:04:26;;;;;;;22.27;17.77;;;20.80;88.00;;;;;;1826957;77;21138;-88
2022/02/27 00:06:58;;;;;;;23.80;17.73;;;20.80;88.10;;;;;;1802794;78;21182;-88
2022/02/27 00:09:29;;;;;;;28.47;18.27;;;20.80;87.60;;;;;;1853607;74;21160;-88
2022/02/27 00:12:00;;;;;;;24.82;18.50;;;20.80;87.60;;;;;;1884811;74;21135;-88
2022/02/27 00:14:31;;;;;;;37.35;27.05;;;20.80;87.80;;;;;;1886592;74;21841;-88
2022/02/27 00:17:01;;;;;;;31.30;21.05;;;20.90;87.90;;;;;;1890195;74;21950;-89
2022/02/27 00:19:32;;;;;;;25.70;18.73;;;20.90;87.40;;;;;;1891014;74;21772;-88
2022/02/27 00:22:03;;;;;;;24.52;17.98;;;20.90;87.40;;;;;;1891304;74;21073;-88
2022/02/27 00:24:34;;;;;;;25.55;18.40;;;20.90;87.20;;;;;;1889266;74;21194;-88
2022/02/27 00:27:05;;;;;;;27.48;18.77;;;21.00;87.20;;;;;;1891168;74;21160;-88
2022/02/27 00:29:36;;;;;;;23.90;17.25;;;21.00;87.10;;;;;;1888747;74;21064;-88
2022/02/27 00:32:07;;;;;;;22.55;17.20;;;21.00;87.10;;;;;;1891493;74;21157;-88
2022/02/27 00:34:38;;;;;;;22.58;15.75;;;21.00;87.40;;;;;;1892196;74;21178;-89
2022/02/27 00:37:09;;;;;;;20.60;14.83;;;21.00;87.40;;;;;;1891584;75;21144;-88
2022/02/27 00:39:40;;;;;;;22.85;15.80;;;21.00;86.70;;;;;;1889551;74;21174;-88
2022/02/27 00:42:11;;;;;;;17.32;13.50;;;21.00;87.00;;;;;;1891054;74;21212;-88
2022/02/27 00:44:42;;;;;;;21.77;14.87;;;21.00;87.00;;;;;;1890034;74;21160;-87
2022/02/27 00:47:13;;;;;;;22.07;15.18;;;21.00;86.40;;;;;;1891517;75;21567;-88
2022/02/27 00:49:44;;;;;;;22.22;15.48;;;21.00;86.80;;;;;;1889324;74;21780;-88
2022/02/27 00:52:18;;;;;;;20.27;16.12;;;21.10;87.40;;;;;;1891821;74;21131;-88
2022/02/27 00:54:47;;;;;;;22.70;16.00;;;21.10;87.70;;;;;;1890469;74;21210;-88
2022/02/27 00:57:18;;;;;;;22.95;16.23;;;21.10;87.80;;;;;;1889174;74;21142;-88
2022/02/27 00:59:49;;;;;;;19.05;14.25;;;21.10;87.40;;;;;;1824467;77;21675;-88
2022/02/27 01:02:19;;;;;;;23.32;15.15;;;21.10;86.80;;;;;;1886611;74;21133;-87
2022/02/27 01:04:50;;;;;;;21.40;15.05;;;21.20;87.10;;;;;;1893572;74;21222;-88
2022/02/27 01:07:21;;;;;;;22.10;14.58;;;21.20;87.00;;;;;;1836982;76;21274;-88
2022/02/27 01:09:52;;;;;;;20.00;13.90;;;21.30;85.90;;;;;;1840129;76;21604;-88
2022/02/27 01:12:22;;;;;;;16.80;13.28;;;21.30;86.00;;;;;;1866573;76;21089;-88
2022/02/27 01:14:53;;;;;;;20.40;13.88;;;21.40;85.30;;;;;;1867552;76;21136;-88
2022/02/27 01:17:24;;;;;;;19.32;12.40;;;21.40;85.50;;;;;;1875105;76;21084;-87
2022/02/27 01:19:55;;;;;;;16.12;11.83;;;21.50;84.80;;;;;;1869856;76;21115;-88
2022/02/27 01:22:26;;;;;;;18.07;12.58;;;21.50;84.40;;;;;;1869261;76;21105;-88
2022/02/27 01:24:57;;;;;;;16.12;12.15;;;21.50;84.50;;;;;;1867124;75;21132;-87
2022/02/27 01:27:28;;;;;;;16.35;12.00;;;21.50;84.30;;;;;;1871890;76;21796;-87
2022/02/27 01:29:58;;;;;;;17.92;11.57;;;21.60;84.10;;;;;;1876286;76;21205;-89
2022/02/27 01:32:31;;;;;;;15.70;12.13;;;21.50;84.10;;;;;;1875290;75;21217;-88
2022/02/27 01:35:03;;;;;;;16.40;11.83;;;21.60;84.10;;;;;;1863072;76;21120;-88
2022/02/27 01:37:34;;;;;;;17.80;12.40;;;21.60;83.90;;;;;;1868651;76;21136;-87
2022/02/27 01:40:07;;;;;;;16.45;11.73;;;21.70;83.80;;;;;;1865721;76;21203;-87
2022/02/27 01:42:39;;;;;;;16.93;11.80;;;21.70;83.90;;;;;;1874438;76;21139;-87
2022/02/27 01:45:10;;;;;;;15.83;12.05;;;21.80;83.70;;;;;;1876014;75;21120;-87
2022/02/27 01:47:41;;;;;;;14.90;10.72;;;21.80;83.20;;;;;;1809299;78;21682;-86
2022/02/27 01:50:13;;;;;;;15.38;11.75;;;21.90;83.40;;;;;;1874555;76;21217;-87
2022/02/27 01:52:43;;;;;;;14.68;11.15;;;21.90;83.30;;;;;;1856132;75;21226;-87
2022/02/27 01:55:14;;;;;;;16.93;12.23;;;22.00;83.20;;;;;;1865754;76;21171;-88
2022/02/27 01:57:47;;;;;;;17.48;11.73;;;22.10;83.30;;;;;;1863786;75;21056;-88
2022/02/27 02:00:18;;;;;;;13.30;10.93;;;22.10;82.60;;;;;;1858507;76;21274;-87
2022/02/27 02:02:48;;;;;;;15.20;10.85;;;22.20;82.70;;;;;;1867624;75;21129;-87
2022/02/27 02:05:20;;;;;;;15.00;11.35;;;22.30;82.50;;;;;;1878079;76;21135;-86
2022/02/27 02:07:51;;;;;;;14.80;10.80;;;22.30;82.20;;;;;;1877140;76;21151;-86
2022/02/27 02:10:22;;;;;;;15.15;11.57;;;22.30;82.30;;;;;;1866563;75;21776;-86
2022/02/27 02:12:54;;;;;;;15.75;12.00;;;22.40;82.00;;;;;;1870975;76;21142;-87
2022/02/27 02:15:25;;;;;;;12.80;10.25;;;22.50;82.00;;;;;;1811611;78;21904;-86
2022/02/27 02:17:56;;;;;;;17.55;11.50;;;22.60;81.70;;;;;;1859565;77;21183;-88
2022/02/27 02:20:28;;;;;;;15.95;11.28;;;22.60;81.40;;;;;;1858125;77;21155;-87
2022/02/27 02:22:58;;;;;;;16.12;11.68;;;22.70;81.30;;;;;;1819591;78;21147;-87
2022/02/27 02:25:29;;;;;;;14.60;10.23;;;22.80;81.30;;;;;;1855352;77;21147;-86
2022/02/27 02:28:00;;;;;;;18.12;9.95;;;22.90;80.80;;;;;;1857632;75;21167;-87
2022/02/27 02:30:31;;;;;;;16.17;10.63;;;23.00;80.30;;;;;;1796881;79;21114;-90
2022/02/27 02:33:01;;;;;;;15.48;9.50;;;23.10;80.20;;;;;;1804549;78;21548;-88
2022/02/27 02:35:32;;;;;;;12.00;8.98;;;23.10;79.50;;;;;;1804897;79;21116;-85
2022/02/27 02:38:03;;;;;;;12.50;9.23;;;23.20;79.30;;;;;;1831540;78;21088;-86
2022/02/27 02:40:34;;;;;;;14.00;9.00;;;23.30;79.10;;;;;;1801328;78;21210;-87
2022/02/27 02:43:12;;;;;;;11.88;9.05;;;23.40;78.70;;;;;;1863084;75;21157;-87
2022/02/27 02:45:40;;;;;;;14.28;9.38;;;23.40;78.40;;;;;;1838216;77;21203;-88
2022/02/27 02:48:11;;;;;;;12.90;10.05;;;23.50;78.70;;;;;;1866514;75;21528;-87
2022/02/27 02:50:42;;;;;;;12.65;9.15;;;23.60;78.10;;;;;;1859089;77;21616;-87
2022/02/27 02:53:12;;;;;;;12.78;9.00;;;23.60;77.90;;;;;;1856882;75;21179;-87
2022/02/27 02:55:43;;;;;;;14.40;9.80;;;23.70;78.10;;;;;;1855677;77;21184;-88
2022/02/27 02:58:14;;;;;;;11.15;9.08;;;23.80;77.50;;;;;;1860882;75;21714;-87
2022/02/27 03:00:44;;;;;;;13.43;9.38;;;23.80;77.40;;;;;;1808158;78;21116;-89
2022/02/27 03:03:17;;;;;;;15.63;9.60;;;23.90;77.50;;;;;;1816967;78;21120;-87
2022/02/27 03:05:48;;;;;;;13.80;9.43;;;24.00;77.20;;;;;;1838210;78;21140;-87
2022/02/27 03:08:18;;;;;;;12.20;8.73;;;24.00;76.70;;;;;;1838902;77;21210;-87
2022/02/27 03:10:49;;;;;;;11.83;8.33;;;24.20;76.30;;;;;;1836734;77;21582;-87
2022/02/27 03:13:20;;;;;;;14.25;8.98;;;24.20;76.00;;;;;;1849878;76;21233;-87
2022/02/27 03:15:51;;;;;;;11.73;8.70;;;24.30;75.60;;;;;;1845204;76;21623;-87
2022/02/27 03:18:23;;;;;;;15.43;8.13;;;24.40;75.20;;;;;;1845302;76;21135;-87
2022/02/27 03:20:54;;;;;;;11.57;8.15;;;24.50;74.80;;;;;;1846860;76;21686;-89
2022/02/27 03:23:26;;;;;;;11.50;7.67;;;24.60;74.50;;;;;;1843442;76;21166;-85
2022/02/27 03:25:58;;;;;;;10.25;7.40;;;24.70;74.20;;;;;;1819309;77;21139;-86
2022/02/27 03:28:28;;;;;;;12.25;7.97;;;24.80;73.80;;;;;;1813547;77;21197;-86
2022/02/27 03:31:00;;;;;;;12.35;8.08;;;24.90;73.40;;;;;;1819507;77;21432;-86
2022/02/27 03:33:31;;;;;;;11.78;7.45;;;25.00;73.30;;;;;;1844418;76;21647;-85
2022/02/27 03:36:02;;;;;;;9.75;7.22;;;25.20;72.30;;;;;;1840767;76;21171;-87
2022/02/27 03:38:32;;;;;;;9.35;7.25;;;25.30;71.60;;;;;;1880223;74;21569;-87
2022/02/27 03:41:03;;;;;;;12.47;6.70;;;25.40;71.50;;;;;;1881014;75;21160;-86
2022/02/27 03:43:34;;;;;;;12.47;8.45;;;25.40;71.60;;;;;;1887070;74;21213;-87
2022/02/27 03:46:04;;;;;;;13.80;8.05;;;25.60;71.40;;;;;;1882279;74;21214;-86
2022/02/27 03:48:37;;;;;;;10.20;6.92;;;25.70;71.10;;;;;;1885533;74;21189;-86
2022/02/27 03:51:08;;;;;;;11.75;7.80;;;25.80;71.30;;;;;;1889240;74;21083;-86
2022/02/27 03:53:39;;;;;;;9.20;7.12;;;25.90;70.40;;;;;;1884624;76;21215;-87
2022/02/27 03:56:10;;;;;;;12.37;7.70;;;26.20;70.10;;;;;;1882693;74;21791;-86
2022/02/27 03:59:15;;;;;;;;;;;;;;;;;;;;;
2022/02/27 04:01:20;;;;;;;9.38;7.47;;;26.30;69.60;;;;;;1869952;74;21223;-86
2022/02/27 04:03:53;;;;;;;10.05;7.10;;;26.30;69.50;;;;;;1885834;74;21159;-87
2022/02/27 04:06:23;;;;;;;10.65;7.08;;;26.50;69.50;;;;;;1879013;74;21168;-84
2022/02/27 04:08:56;;;;;;;10.70;7.33;;;26.60;69.00;;;;;;1816489;77;21215;-84
2022/02/27 04:11:27;;;;;;;13.32;7.50;;;26.70;67.90;;;;;;1841562;77;21163;-85
2022/02/27 04:13:58;;;;;;;11.43;6.90;;;26.80;68.70;;;;;;1836492;78;21191;-85
2022/02/27 04:16:29;;;;;;;9.80;7.12;;;26.90;68.60;;;;;;1856264;77;21185;-86
2022/02/27 04:19:00;;;;;;;9.43;7.10;;;27.00;67.00;;;;;;1846694;76;21092;-86
2022/02/27 04:21:33;;;;;;;11.38;7.80;;;27.20;67.30;;;;;;1858118;76;21151;-85
2022/02/27 04:24:04;;;;;;;12.85;7.05;;;27.30;67.20;;;;;;1852760;76;22388;-87
2022/02/27 04:26:35;;;;;;;10.78;7.17;;;27.50;66.50;;;;;;1850583;76;21217;-86
2022/02/27 04:29:06;;;;;;;11.65;6.78;;;27.60;65.70;;;;;;1856400;77;21657;-86
2022/02/27 04:31:37;;;;;;;10.75;7.65;;;27.70;64.90;;;;;;1855055;76;21111;-85
2022/02/27 04:34:08;;;;;;;8.73;6.17;;;27.70;64.60;;;;;;1849954;76;21186;-85
2022/02/27 04:36:39;;;;;;;10.98;6.47;;;27.80;64.10;;;;;;1853829;77;21159;-83
2022/02/27 04:39:10;;;;;;;8.30;6.40;;;27.80;64.60;;;;;;1855043;76;21129;-86
2022/02/27 04:41:42;;;;;;;7.85;6.00;;;27.80;64.30;;;;;;1841342;77;21674;-86
2022/02/27 04:44:13;;;;;;;8.85;6.15;;;27.90;64.10;;;;;;1821055;78;21634;-85
2022/02/27 04:46:44;;;;;;;8.03;6.30;;;27.90;63.30;;;;;;1841844;76;21226;-85
2022/02/27 04:49:15;;;;;;;7.33;5.90;;;28.00;64.30;;;;;;1834466;78;21571;-85
2022/02/27 04:51:46;;;;;;;8.75;6.50;;;27.90;63.30;;;;;;1856342;76;21541;-85
2022/02/27 04:54:17;;;;;;;8.30;6.20;;;28.00;63.10;;;;;;1838086;78;21089;-86
2022/02/27 04:56:48;;;;;;;7.95;6.53;;;28.00;63.40;;;;;;1856630;76;21223;-85
2022/02/27 04:59:19;;;;;;;9.80;5.70;;;28.00;62.40;;;;;;1857151;77;21123;-85
2022/02/27 05:01:49;;;;;;;12.65;6.50;;;28.10;62.90;;;;;;1851348;77;21165;-85
2022/02/27 05:04:20;;;;;;;10.10;7.15;;;28.20;62.50;;;;;;1853776;76;21128;-87
2022/02/27 05:06:51;;;;;;;8.63;6.55;;;28.20;62.40;;;;;;1855812;77;21258;-86
2022/02/27 05:09:22;;;;;;;10.10;6.65;;;28.20;62.90;;;;;;1850705;77;21590;-85
2022/02/27 05:11:53;;;;;;;11.22;7.53;;;28.30;62.40;;;;;;1854651;76;21133;-85
2022/02/27 05:14:23;;;;;;;10.98;7.45;;;28.40;62.30;;;;;;1867700;77;21412;-85
2022/02/27 05:16:55;;;;;;;12.82;7.72;;;28.50;62.00;;;;;;1828401;78;21188;-86
2022/02/27 05:19:25;;;;;;;10.82;6.62;;;28.60;60.90;;;;;;1835354;78;21769;-86
2022/02/27 05:21:56;;;;;;;10.58;7.55;;;28.70;60.70;;;;;;1835464;78;21179;-86
2022/02/27 05:24:27;;;;;;;9.05;6.67;;;28.80;59.80;;;;;;1836559;78;21148;-88
2022/02/27 05:27:01;;;;;;;10.00;6.90;;;28.80;58.60;;;;;;1854869;77;21172;-86
2022/02/27 05:29:30;;;;;;;12.03;7.45;;;28.90;59.30;;;;;;1871928;76;21643;-87
2022/02/27 05:32:01;;;;;;;11.22;7.05;;;29.00;59.00;;;;;;1871778;76;21151;-87
2022/02/27 05:34:32;;;;;;;10.23;7.55;;;29.00;58.90;;;;;;1870259;76;21116;-86
2022/02/27 05:37:02;;;;;;;10.58;7.97;;;29.00;58.50;;;;;;1809243;78;21176;-86
2022/02/27 05:39:33;;;;;;;11.28;8.15;;;29.10;58.60;;;;;;1804334;79;21165;-86
2022/02/27 05:42:04;;;;;;;10.15;8.20;;;29.10;58.70;;;;;;1806784;78;21521;-86
2022/02/27 05:44:35;;;;;;;11.88;8.55;;;;;;;;;;1866231;77;21183;-86
2022/02/27 05:47:06;;;;;;;10.82;8.03;;;29.30;57.20;;;;;;1865041;77;21168;-86
2022/02/27 05:49:40;;;;;;;13.32;9.30;;;29.40;58.20;;;;;;1876547;76;21119;-85
2022/02/27 05:52:11;;;;;;;12.88;8.90;;;29.50;57.90;;;;;;1871955;76;21178;-84
2022/02/27 05:54:42;;;;;;;12.45;8.08;;;29.60;56.00;;;;;;1863388;76;21136;-83
2022/02/27 05:57:13;;;;;;;12.05;8.15;;;29.60;57.20;;;;;;1876720;76;21179;-83
2022/02/27 05:59:44;;;;;;;12.37;8.95;;;29.60;55.80;;;;;;1872745;76;21151;-84
2022/02/27 06:02:15;;;;;;;10.78;8.15;;;29.60;56.30;;;;;;1875449;76;21156;-86
2022/02/27 06:04:48;;;;;;;10.65;7.92;;;29.60;56.90;;;;;;1823195;78;21147;-86
2022/02/27 06:07:21;;;;;;;12.20;7.65;;;29.60;57.30;;;;;;1834926;78;21205;-84
2022/02/27 06:09:51;;;;;;;8.50;7.35;;;29.60;57.00;;;;;;1812687;78;21147;-86
2022/02/27 06:12:21;;;;;;;10.63;8.20;;;29.60;57.20;;;;;;1800634;78;21116;-88
2022/02/27 06:14:53;;;;;;;11.30;8.18;;;29.60;57.30;;;;;;1874206;76;22449;-86
2022/02/27 06:17:52;;;;;;;11.75;7.47;;;29.60;57.00;;;;;;1877056;76;21205;-85
2022/02/27 06:20:07;;;;;;;11.88;8.18;;;29.70;57.00;;;;;;1862474;75;21215;-86
2022/02/27 06:22:40;;;;;;;14.00;8.13;;;29.70;56.90;;;;;;1875366;76;21575;-84
2022/02/27 06:25:13;;;;;;;12.20;7.40;;;29.70;56.50;;;;;;1873248;76;21141;-75
2022/02/27 06:27:44;;;;;;;13.53;7.80;;;29.80;56.70;;;;;;1876510;76;21141;-81
2022/02/27 06:30:17;;;;;;;9.48;7.15;;;29.90;55.70;;;;;;1877105;76;21714;-76
2022/02/27 06:32:50;;;;;;;12.15;8.13;;;29.90;55.80;;;;;;1878725;76;21096;-76
2022/02/27 06:35:22;;;;;;;11.53;7.72;;;30.00;56.20;;;;;;1873450;75;21588;-75
2022/02/27 06:37:54;;;;;;;9.23;7.25;;;30.10;55.60;;;;;;1872667;76;21213;-76
2022/02/27 06:40:25;;;;;;;9.00;7.58;;;30.10;56.20;;;;;;1871185;76;21226;-77
2022/02/27 06:42:56;;;;;;;10.43;7.50;;;30.10;56.00;;;;;;1878675;76;21092;-75
2022/02/27 06:45:27;;;;;;;9.08;7.33;;;30.10;56.20;;;;;;1862806;76;21159;-76
2022/02/27 06:47:58;;;;;;;10.55;7.40;;;30.20;55.80;;;;;;1861475;76;21147;-75
2022/02/27 06:50:29;;;;;;;8.70;7.28;;;30.20;55.40;;;;;;1863475;76;21159;-77
2022/02/27 06:53:00;;;;;;;9.63;7.95;;;30.20;54.70;;;;;;1870245;76;21233;-76
2022/02/27 06:55:31;;;;;;;8.88;7.10;;;30.20;54.60;;;;;;1865227;76;21463;-76
2022/02/27 06:58:01;;;;;;;10.53;7.40;;;30.20;54.70;;;;;;1869330;76;21084;-76
2022/02/27 07:00:32;;;;;;;13.53;9.43;;;30.20;55.30;;;;;;1869718;76;21159;-77
2022/02/27 07:03:03;;;;;;;11.50;7.75;;;30.20;55.30;;;;;;1857177;76;21123;-75
2022/02/27 07:05:34;;;;;;;11.05;8.15;;;30.20;54.70;;;;;;1804770;78;21905;-75
2022/02/27 07:08:06;;;;;;;11.73;7.58;;;30.30;55.30;;;;;;1864329;76;21563;-76
2022/02/27 07:10:37;;;;;;;11.05;8.43;;;30.30;54.70;;;;;;1854314;76;21109;-76
2022/02/27 07:13:08;;;;;;;9.35;7.80;;;30.30;54.30;;;;;;1870239;76;21131;-78
2022/02/27 07:15:41;;;;;;;11.15;8.70;;;30.40;53.80;;;;;;1876924;76;21126;-75
2022/02/27 07:18:12;;;;;;;10.32;7.83;;;30.40;54.80;;;;;;1884103;76;21128;-77
2022/02/27 07:20:44;;;;;;;12.78;8.10;;;30.40;53.90;;;;;;1881951;74;21175;-76
2022/02/27 07:23:15;;;;;;;13.98;9.10;;;30.40;54.00;;;;;;1883872;76;21166;-76
2022/02/27 07:25:45;;;;;;;10.95;8.45;;;30.50;54.50;;;;;;1885965;75;21635;-76
2022/02/27 07:28:16;;;;;;;11.08;8.35;;;30.50;53.90;;;;;;1883069;76;21096;-75
2022/02/27 07:30:47;;;;;;;8.85;7.47;;;30.50;53.00;;;;;;1883681;76;21155;-77
2022/02/27 07:33:19;;;;;;;12.73;8.33;;;30.40;53.20;;;;;;1887594;76;21181;-76
2022/02/27 07:35:50;;;;;;;12.85;9.00;;;30.50;53.60;;;;;;1882257;74;21151;-75
2022/02/27 07:38:23;;;;;;;9.88;8.05;;;30.40;52.00;;;;;;1873626;76;21659;-76
2022/02/27 07:40:54;;;;;;;10.05;7.45;;;30.40;52.90;;;;;;1887901;76;21674;-77
2022/02/27 07:43:25;;;;;;;17.55;9.68;;;30.40;52.50;;;;;;1817735;77;21625;-76
2022/02/27 07:45:56;;;;;;;14.07;8.68;;;30.40;52.30;;;;;;1818616;77;21124;-76
2022/02/27 07:48:27;;;;;;;12.95;8.50;;;30.40;52.20;;;;;;1846608;77;21136;-75
2022/02/27 07:50:58;;;;;;;13.50;8.70;;;30.30;52.50;;;;;;1816805;78;21143;-76
2022/02/27 07:53:29;;;;;;;9.65;8.20;;;30.30;52.20;;;;;;1819045;78;21239;-76
2022/02/27 07:55:59;;;;;;;14.10;8.85;;;30.20;52.50;;;;;;1844283;76;21196;-75
2022/02/27 07:58:30;;;;;;;11.00;8.60;;;30.20;52.40;;;;;;1846464;77;21187;-75
2022/02/27 08:01:02;;;;;;;12.15;8.50;;;30.20;52.40;;;;;;1887813;76;21080;-76
2022/02/27 08:03:35;;;;;;;13.53;9.13;;;30.10;52.50;;;;;;1887669;75;21148;-75
2022/02/27 08:06:06;;;;;;;9.33;8.28;;;30.10;52.70;;;;;;1884417;76;21536;-75
2022/02/27 08:08:37;;;;;;;11.00;8.38;;;30.10;52.60;;;;;;1886266;76;21068;-75
2022/02/27 08:11:11;;;;;;;13.30;9.58;;;30.10;52.60;;;;;;1887504;76;21735;-75
2022/02/27 08:13:41;;;;;;;11.95;9.13;;;30.10;52.50;;;;;;1884357;76;21122;-75
2022/02/27 08:16:13;;;;;;;12.18;8.85;;;30.10;52.70;;;;;;1894998;75;21605;-75
2022/02/27 08:18:43;;;;;;;11.43;9.18;;;30.10;52.50;;;;;;1883555;75;21178;-76
2022/02/27 08:21:15;;;;;;;12.43;9.40;;;30.10;52.50;;;;;;1891491;75;21895;-75
2022/02/27 08:23:45;;;;;;;11.55;9.33;;;30.00;52.00;;;;;;1891384;74;21535;-75
2022/02/27 08:26:17;;;;;;;15.60;9.00;;;30.00;51.90;;;;;;1894389;75;21673;-74
2022/02/27 08:28:48;;;;;;;11.12;8.83;;;30.10;52.20;;;;;;1893303;75;21521;-76
2022/02/27 08:31:20;;;;;;;11.40;8.43;;;30.10;52.30;;;;;;1900945;75;21646;-75
2022/02/27 08:33:50;;;;;;;12.10;9.00;;;30.00;52.50;;;;;;1894505;76;21134;-76
2022/02/27 08:36:21;;;;;;;11.18;9.03;;;30.00;52.70;;;;;;1893939;75;21178;-74
2022/02/27 08:38:52;;;;;;;12.95;9.53;;;30.00;53.10;;;;;;1893807;74;21628;-75
2022/02/27 08:41:23;;;;;;;13.65;9.35;;;30.00;52.90;;;;;;1891728;74;21136;-76
2022/02/27 08:43:54;;;;;;;10.85;8.95;;;30.00;53.00;;;;;;1894604;75;21104;-76
2022/02/27 08:46:25;;;;;;;12.03;9.05;;;30.00;52.90;;;;;;1883453;76;21083;-75
2022/02/27 08:48:55;;;;;;;13.05;9.80;;;30.00;53.20;;;;;;1884259;75;21742;-75
2022/02/27 08:51:27;;;;;;;10.82;9.28;;;29.90;53.00;;;;;;1894483;75;21201;-74
2022/02/27 08:53:57;;;;;;;13.83;10.72;;;29.90;53.50;;;;;;1892724;75;21170;-75
2022/02/27 08:56:28;;;;;;;12.70;10.00;;;29.90;53.60;;;;;;1881178;75;21163;-77
2022/02/27 08:59:02;;;;;;;14.55;10.18;;;30.00;52.60;;;;;;1892587;75;21176;-73
2022/02/27 09:01:33;;;;;;;12.13;10.00;;;30.00;53.20;;;;;;1891669;75;21199;-79
2022/02/27 09:04:04;;;;;;;15.15;10.43;;;30.00;53.50;;;;;;1894683;75;21229;-80
2022/02/27 09:06:36;;;;;;;14.65;11.22;;;30.00;53.70;;;;;;1894296;75;21566;-80
2022/02/27 09:09:06;;;;;;;13.68;11.25;;;29.90;52.80;;;;;;1894070;75;21099;-80
2022/02/27 09:11:38;;;;;;;15.72;11.20;;;29.90;53.50;;;;;;1886220;75;21684;-79
2022/02/27 09:14:09;;;;;;;17.23;10.35;;;30.00;53.60;;;;;;1882106;75;21138;-78
2022/02/27 09:16:40;;;;;;;13.35;10.03;;;29.90;53.30;;;;;;1879972;76;21183;-79
2022/02/27 09:19:10;;;;;;;13.78;10.48;;;29.90;53.30;;;;;;1875266;76;21132;-81
2022/02/27 09:21:41;;;;;;;13.05;10.18;;;29.90;53.70;;;;;;1884594;75;21166;-79
2022/02/27 09:24:12;;;;;;;13.65;10.18;;;29.80;53.50;;;;;;1886020;76;21155;-80
2022/02/27 09:26:45;;;;;;;17.02;9.90;;;29.80;54.50;;;;;;1886221;75;21720;-80
2022/02/27 09:29:15;;;;;;;14.07;11.18;;;29.80;54.10;;;;;;1876084;76;21139;-82
2022/02/27 09:31:46;;;;;;;16.15;10.10;;;29.70;54.10;;;;;;1826009;77;21178;-79
2022/02/27 09:34:17;;;;;;;14.85;10.43;;;29.70;53.80;;;;;;1833585;78;21200;-79
2022/02/27 09:36:48;;;;;;;11.57;9.88;;;29.70;53.70;;;;;;1837305;78;21613;-79
2022/02/27 09:39:21;;;;;;;17.80;10.80;;;29.70;53.90;;;;;;1845538;76;21068;-80
2022/02/27 09:41:53;;;;;;;12.15;10.30;;;29.70;53.60;;;;;;1841104;77;21234;-80
2022/02/27 09:44:29;;;;;;;17.70;11.05;;;29.70;54.30;;;;;;1887157;76;21106;-79
2022/02/27 09:47:07;;;;;;;17.00;12.35;;;29.60;54.20;;;;;;1887639;76;21080;-78
2022/02/27 09:49:46;;;;;;;15.00;11.50;;;29.50;54.40;;;;;;1878580;76;21574;-80
2022/02/27 09:52:19;;;;;;;16.52;11.03;;;29.50;54.60;;;;;;1887552;76;21135;-80
2022/02/27 09:54:50;;;;;;;15.10;11.05;;;29.40;54.10;;;;;;1887132;76;21167;-80
2022/02/27 09:57:23;;;;;;;17.02;11.93;;;29.40;54.80;;;;;;1879075;76;21206;-80
2022/02/27 09:59:53;;;;;;;15.63;11.83;;;29.30;54.90;;;;;;1888798;75;21117;-81
2022/02/27 10:02:24;;;;;;;18.67;12.20;;;29.30;55.10;;;;;;1881371;76;21217;-80
2022/02/27 10:04:57;;;;;;;13.75;11.25;;;29.20;55.20;;;;;;1888151;76;21715;-81
2022/02/27 10:07:28;;;;;;;13.85;10.98;;;29.20;55.60;;;;;;1889866;76;21147;-81
2022/02/27 10:10:01;;;;;;;15.28;11.50;;;29.20;55.40;;;;;;1888586;76;21131;-81
2022/02/27 10:12:32;;;;;;;16.57;11.60;;;29.20;55.50;;;;;;1885825;75;21241;-81
2022/02/27 10:15:08;;;;;;;17.42;11.18;;;29.10;55.20;;;;;;1883857;75;21150;-80
2022/02/27 10:17:49;;;;;;;15.30;12.15;;;29.10;55.90;;;;;;1879591;74;21206;-80
2022/02/27 10:20:24;;;;;;;14.98;11.97;;;29.10;56.00;;;;;;1885929;75;21092;-80
2022/02/27 10:22:57;;;;;;;12.33;11.00;;;29.00;55.70;;;;;;1890173;74;21116;-79
2022/02/27 10:25:31;;;;;;;23.18;15.28;;;29.00;56.00;;;;;;1897702;75;21093;-80
2022/02/27 10:28:07;;;;;;;21.52;13.30;;;29.00;56.10;;;;;;1901498;75;21056;-81
2022/02/27 10:31:02;;;;;;;17.32;13.00;;;29.00;56.20;;;;;;1900832;74;21225;-80
2022/02/27 10:34:09;;;;;;;15.08;12.98;;;28.90;56.00;;;;;;1880407;74;21707;-82
2022/02/27 10:36:16;;;;;;;17.20;13.00;;;28.90;56.10;;;;;;1882754;75;21086;-83
2022/02/27 10:38:55;;;;;;;19.20;15.25;;;28.80;56.20;;;;;;1895797;75;21127;-81
2022/02/27 10:41:21;;;;;;;21.97;14.70;;;28.80;56.20;;;;;;1889221;75;21119;-82
2022/02/27 10:43:53;;;;;;;17.12;13.35;;;28.80;56.10;;;;;;1890455;75;21127;-81
2022/02/27 10:46:32;;;;;;;21.77;14.20;;;28.80;56.20;;;;;;1894707;75;21268;-83
2022/02/27 10:49:01;;;;;;;20.65;15.63;;;28.80;56.30;;;;;;1892719;76;21129;-82
2022/02/27 10:51:34;;;;;;;21.17;14.70;;;28.70;56.40;;;;;;1895218;75;21244;-81
2022/02/27 10:54:05;;;;;;;15.75;13.32;;;28.80;56.50;;;;;;1885361;75;21431;-83
2022/02/27 10:56:37;;;;;;;17.20;12.50;;;28.70;56.40;;;;;;1887561;75;21543;-83
2022/02/27 10:59:13;;;;;;;21.55;14.07;;;28.70;56.60;;;;;;1895654;75;22358;-81
2022/02/27 11:01:44;;;;;;;22.05;14.05;;;28.70;56.80;;;;;;1894395;74;21133;-82
2022/02/27 11:04:15;;;;;;;18.90;12.75;;;28.60;56.90;;;;;;1895033;75;21107;-82
2022/02/27 11:06:48;;;;;;;18.55;13.58;;;28.60;57.30;;;;;;1889187;76;21133;-82
2022/02/27 11:09:18;;;;;;;18.12;13.93;;;28.60;57.30;;;;;;1893005;75;21596;-83
2022/02/27 11:11:49;;;;;;;18.42;13.03;;;28.50;57.40;;;;;;1899823;74;21133;-83
2022/02/27 11:14:21;;;;;;;18.02;13.80;;;28.50;57.70;;;;;;1892158;75;21575;-82
2022/02/27 11:16:59;;;;;;;22.27;14.07;;;28.40;58.10;;;;;;1891928;75;21214;-82
2022/02/27 11:19:32;;;;;;;21.68;15.13;;;28.40;57.70;;;;;;1883172;76;21071;-81
2022/02/27 11:22:04;;;;;;;25.95;14.75;;;28.30;57.80;;;;;;1873171;76;21171;-81
2022/02/27 11:24:38;;;;;;;21.82;14.95;;;28.30;58.00;;;;;;1883576;76;21221;-83
2022/02/27 11:27:10;;;;;;;24.85;15.65;;;28.30;58.20;;;;;;1878430;76;21127;-83
2022/02/27 11:29:41;;;;;;;22.20;16.27;;;28.20;58.20;;;;;;1873729;76;21692;-83
2022/02/27 11:32:12;;;;;;;24.92;16.60;;;28.20;58.20;;;;;;1872061;76;21159;-83
2022/02/27 11:34:43;;;;;;;19.62;15.40;;;28.20;58.30;;;;;;1884247;76;21187;-85
2022/02/27 11:37:15;;;;;;;27.82;16.23;;;28.10;58.30;;;;;;1875877;76;21140;-84
2022/02/27 11:42:25;;;;;;;23.65;15.98;;;28.10;58.50;;;;;;1872938;76;21217;-86
2022/02/27 11:44:56;;;;;;;21.62;15.80;;;28.00;58.70;;;;;;1867766;76;21124;-87
2022/02/27 11:47:38;;;;;;;25.88;15.58;;;28.00;58.80;;;;;;1874287;76;21154;-88
2022/02/27 11:50:08;;;;;;;23.38;17.57;;;27.90;58.80;;;;;;1885987;76;21210;-87
2022/02/27 11:52:40;;;;;;;24.77;16.45;;;27.90;58.90;;;;;;1876690;76;21068;-88
2022/02/27 11:55:19;;;;;;;23.80;17.87;;;27.90;58.90;;;;;;1873306;76;21084;-88
2022/02/27 11:57:50;;;;;;;24.52;17.52;;;27.90;58.80;;;;;;1877730;76;21107;-86
2022/02/27 12:00:22;;;;;;;25.68;17.70;;;27.90;58.80;;;;;;1880252;76;21193;-88
2022/02/27 12:02:53;;;;;;;24.60;17.98;;;27.90;58.80;;;;;;1876277;76;21115;-88
2022/02/27 12:05:28;;;;;;;27.55;18.30;;;27.90;59.00;;;;;;1876938;76;21450;-87
2022/02/27 12:08:01;;;;;;;29.82;17.87;;;27.90;59.00;;;;;;1869253;76;21173;-88
2022/02/27 12:10:34;;;;;;;25.32;19.05;;;27.90;59.00;;;;;;1886678;76;21088;-87
2022/02/27 12:13:06;;;;;;;23.18;18.30;;;27.90;59.30;;;;;;1877680;76;21153;-87
2022/02/27 12:15:39;;;;;;;26.73;18.73;;;27.80;59.20;;;;;;1869915;74;21278;-87
2022/02/27 12:18:11;;;;;;;32.50;20.17;;;27.80;59.50;;;;;;1878432;76;21163;-87
2022/02/27 12:20:44;;;;;;;26.42;19.27;;;27.80;59.60;;;;;;1880323;76;21166;-86
2022/02/27 12:23:18;;;;;;;29.10;18.60;;;27.80;59.50;;;;;;1875790;76;21186;-86
2022/02/27 12:25:49;;;;;;;26.90;19.35;;;27.80;59.60;;;;;;1874164;76;21142;-87
2022/02/27 12:28:23;;;;;;;28.73;19.42;;;27.80;59.70;;;;;;1875487;76;21642;-88
2022/02/27 12:30:56;;;;;;;27.93;20.15;;;27.70;59.00;;;;;;1801861;78;21207;-87
2022/02/27 12:33:28;;;;;;;33.18;20.48;;;27.80;58.80;;;;;;1816338;78;21096;-87
2022/02/27 12:36:19;;;;;;;32.25;20.27;;;27.80;58.90;;;;;;1838289;75;21480;-88
2022/02/27 12:38:53;;;;;;;29.23;20.50;;;27.70;58.90;;;;;;1809328;79;21225;-88
2022/02/27 12:41:27;;;;;;;30.80;21.02;;;27.80;58.90;;;;;;1809387;78;21635;-86
2022/02/27 12:43:59;;;;;;;36.98;21.27;;;27.80;58.90;;;;;;1814744;78;21168;-86
2022/02/27 12:46:37;;;;;;;32.65;21.20;;;27.70;59.00;;;;;;1810608;78;21228;-86
2022/02/27 12:51:41;;;;;;;32.73;22.22;;;27.70;59.00;;;;;;1805276;78;21146;-86
2022/02/27 12:54:13;;;;;;;31.45;21.95;;;27.70;59.40;;;;;;1805756;78;21710;-86
2022/02/27 12:56:45;;;;;;;34.98;21.35;;;27.70;59.40;;;;;;1811760;78;21720;-86
2022/02/27 12:59:17;;;;;;;35.95;22.50;;;27.70;59.50;;;;;;1801567;79;21092;-86
2022/02/27 13:01:53;;;;;;;27.70;21.65;;;27.70;59.70;;;;;;1808503;78;21657;-85